Charlton, Canada
Current Conditions -  °F | °C
As of 6:00 AM on Tuesday 21 Oct 2014 (Local Time) from CYXR Reporting Station
Broken Clouds Broken Clouds  
Wind Chill: 22°   Ceiling: 22000
Heat Index: 30°   Visibility: 9mi
Dew Point: 28°   Wind: 9mph
Humidity: 93%   Direction: 350°N
Pressure: 30.1"   Gusts: NA
Location:  47.82°N, 80°W
Report Text: CYXR 211000Z AUTO 35008KT 9SM FEW160 BKN220 M01/M02 A3010 RMK SLP204
Loading
Personal Weather Stations






























Interactive Weather Map
Tropical Storm Tracking
New forecast layout! Learn more

10-Day Weather Forecast

Advertisements
Track Severe Weather on mobile